Sharurah Airport
OESH : now visible

Airfield :











YOU CAN JOIN US ON...

 
LOGIN :

Register | Disclaimer

   EN    FR    IT 

 









Legend :    VFR   Marginal VFR   IFR   Intensive IFR   Very Intensive IFR
Visi :
Ceiling :
>= 8 km
>= 3000ft
5 to 8 km
1000 to 3000 ft
1500m to 5 km
500 to 1000 ft
800 to 1500m
200 to 500 ft
< 800m
< 200 ft
Symbols :   Thunderstorms  Fog  Heavy snow  Heavy precipitations  Wind > 20 kt






- Airport Elevation : 2363 ft
- IATA code : SHW


OESH - Sharurah

CURRENT METAR :
  • 020700Z 18007KT CAVOK 32/11 Q1014 NOSIG

EXPIRED METARs :
  • 020600Z 17008KT 9000 NSC 30/11 Q1015 NOSIG
  • 020500Z 18009KT 9000 FEW040 29/11 Q1015 NOSIG
  • 020400Z 17008KT 9999 FEW040 27/10 Q1014 NOSIG

TAF TAF OESH
Valid from the 02 at 00:00 until the 03 at 06:00 UTC


012300Z 0200/0306 VRB03KT CAVOK
BECMG 0203/0205 19015KT
BECMG 0215/0217 09008KT



MET'MAP, your aeronautical weather chart ! - Copyright ORBIFLY December 2007 - Disclaimer

ORBIFLY MET'MAP TEAM :

Programming & Development : Alexandra Zaïnal
Concept & original design : Baudouin d'Aumeries
Assistance for programming : Marc-Olivier Méhu
Technical & hardware support : Manuel Goepfert

Contact : metmap@orbifly.com




SOURCES & CREDITS :

   NOAA       Earth
Advisory